createdAt,value
2023-01-15T00:01:34.683Z,13.30
2023-01-15T00:04:03.763Z,13.35
2023-01-15T00:06:32.667Z,13.04
2023-01-15T00:08:59.342Z,12.86
2023-01-15T00:11:25.819Z,12.93
2023-01-15T00:13:52.849Z,12.67
2023-01-15T00:16:21.905Z,12.06
2023-01-15T00:18:52.583Z,12.96
2023-01-15T00:21:20.897Z,12.52
2023-01-15T00:24:07.201Z,12.50
2023-01-15T00:26:53.500Z,13.18
2023-01-15T00:29:20.865Z,11.95
2023-01-15T00:31:57.933Z,12.60
2023-01-15T00:34:25.876Z,13.05
2023-01-15T00:36:52.830Z,12.87
2023-01-15T00:39:19.403Z,12.58
2023-01-15T00:41:46.077Z,13.15
2023-01-15T00:44:12.475Z,13.03
2023-01-15T00:46:39.065Z,12.70
2023-01-15T00:49:05.558Z,13.00
2023-01-15T00:51:32.028Z,12.57
2023-01-15T00:53:58.709Z,12.44
2023-01-15T00:56:25.111Z,12.54
2023-01-15T00:58:51.529Z,12.54
2023-01-15T01:01:18.353Z,12.48
2023-01-15T01:03:48.876Z,11.87
2023-01-15T01:06:16.957Z,11.86
2023-01-15T01:08:46.167Z,11.44
2023-01-15T01:11:16.643Z,10.52
2023-01-15T01:13:44.564Z,10.48
2023-01-15T01:16:22.353Z,9.40
2023-01-15T01:18:48.933Z,9.94
2023-01-15T01:21:15.409Z,9.13
2023-01-15T01:23:41.828Z,9.33
2023-01-15T01:26:08.288Z,8.92
2023-01-15T01:28:34.707Z,9.34
2023-01-15T01:31:04.988Z,8.83
2023-01-15T01:33:31.452Z,8.62
2023-01-15T01:35:57.902Z,8.33
2023-01-15T01:38:24.378Z,8.81
2023-01-15T01:40:50.821Z,8.94
2023-01-15T01:43:23.752Z,9.03
2023-01-15T01:45:50.240Z,8.72
2023-01-15T01:48:21.099Z,8.60
2023-01-15T01:50:49.848Z,8.70
2023-01-15T01:53:23.020Z,8.52
2023-01-15T01:55:51.386Z,7.97
2023-01-15T01:58:19.949Z,8.43
2023-01-15T02:00:48.875Z,7.94
2023-01-15T02:03:16.174Z,8.37
2023-01-15T02:05:51.567Z,8.13
2023-01-15T02:08:18.738Z,7.13
2023-01-15T02:10:51.855Z,7.66
2023-01-15T02:13:38.739Z,7.89
2023-01-15T02:16:16.546Z,7.54
2023-01-15T02:19:07.008Z,8.00
2023-01-15T02:21:58.762Z,7.96
2023-01-15T02:24:47.425Z,7.26
2023-01-15T02:27:20.605Z,7.56
2023-01-15T02:29:59.342Z,7.82
2023-01-15T02:32:50.289Z,7.36
2023-01-15T02:35:41.949Z,7.50
2023-01-15T02:38:12.408Z,7.32
2023-01-15T02:40:41.096Z,7.63
2023-01-15T02:43:09.119Z,7.23
2023-01-15T02:45:40.712Z,7.33
2023-01-15T02:48:13.687Z,7.65
2023-01-15T02:50:44.547Z,7.77
2023-01-15T02:53:17.264Z,7.63
2023-01-15T02:55:49.334Z,7.83
2023-01-15T02:58:26.006Z,7.76
2023-01-15T03:00:56.675Z,8.30
2023-01-15T03:03:45.105Z,7.83
2023-01-15T03:06:21.964Z,7.61
2023-01-15T03:08:48.522Z,7.82
2023-01-15T03:11:17.035Z,8.50
2023-01-15T03:13:48.955Z,8.00
2023-01-15T03:16:39.051Z,8.14
2023-01-15T03:19:34.201Z,8.43
2023-01-15T03:22:10.379Z,8.24
2023-01-15T03:24:43.774Z,8.29
2023-01-15T03:27:11.137Z,7.66
2023-01-15T03:29:42.256Z,7.79
2023-01-15T03:32:08.946Z,7.36
2023-01-15T03:34:45.062Z,8.54
2023-01-15T03:37:12.703Z,8.03
2023-01-15T03:39:40.370Z,7.94
2023-01-15T03:42:24.721Z,7.96
2023-01-15T03:45:12.995Z,7.85
2023-01-15T03:48:15.847Z,7.76
2023-01-15T03:51:12.210Z,8.16
2023-01-15T03:53:57.760Z,8.62
2023-01-15T03:56:44.841Z,8.98
2023-01-15T03:59:38.060Z,8.02
2023-01-15T04:02:08.685Z,7.96
2023-01-15T04:04:35.958Z,7.76
2023-01-15T04:07:03.097Z,8.63
2023-01-15T04:09:30.316Z,8.90
2023-01-15T04:12:01.142Z,7.86
2023-01-15T04:14:30.294Z,9.09
2023-01-15T04:16:56.757Z,9.27
2023-01-15T04:19:23.173Z,9.28
2023-01-15T04:21:49.612Z,9.06
2023-01-15T04:24:16.017Z,9.22
2023-01-15T04:26:42.430Z,8.94
2023-01-15T04:29:08.867Z,9.36
2023-01-15T04:31:36.220Z,9.02
2023-01-15T04:34:03.902Z,8.90
2023-01-15T04:36:30.805Z,8.99
2023-01-15T04:38:59.228Z,9.10
2023-01-15T04:41:44.352Z,8.69
2023-01-15T04:44:10.751Z,8.57
2023-01-15T04:46:40.135Z,9.03
2023-01-15T04:49:10.641Z,9.27
2023-01-15T04:51:37.435Z,8.59
2023-01-15T04:54:05.474Z,8.24
2023-01-15T04:56:32.731Z,8.59
2023-01-15T04:59:02.953Z,9.22
2023-01-15T05:01:29.567Z,8.98
2023-01-15T05:03:57.672Z,8.65
2023-01-15T05:06:25.451Z,8.69
2023-01-15T05:08:52.537Z,9.53
2023-01-15T05:11:19.279Z,8.42
2023-01-15T05:13:45.698Z,9.21
2023-01-15T05:16:14.521Z,9.43
2023-01-15T05:18:42.619Z,8.75
2023-01-15T05:21:18.329Z,9.29
2023-01-15T05:23:45.392Z,8.41
2023-01-15T05:26:11.887Z,9.40
2023-01-15T05:28:38.742Z,8.99
2023-01-15T05:31:10.118Z,8.96
2023-01-15T05:33:37.995Z,9.07
2023-01-15T05:36:07.396Z,8.79
2023-01-15T05:38:34.814Z,8.35
2023-01-15T05:41:28.284Z,9.41
2023-01-15T05:43:56.003Z,8.88
2023-01-15T05:46:23.212Z,9.25
2023-01-15T05:48:49.686Z,8.70
2023-01-15T05:51:16.293Z,8.60
2023-01-15T05:53:42.968Z,9.04
2023-01-15T05:56:09.438Z,9.48
2023-01-15T05:58:36.542Z,8.59
2023-01-15T06:01:08.509Z,8.44
2023-01-15T06:03:35.425Z,8.84
2023-01-15T06:06:02.025Z,9.15
2023-01-15T06:08:28.447Z,8.21
2023-01-15T06:10:54.866Z,9.19
2023-01-15T06:13:21.296Z,9.20
2023-01-15T06:15:47.776Z,8.88
2023-01-15T06:18:17.000Z,8.44
2023-01-15T06:20:43.895Z,9.38
2023-01-15T06:23:10.396Z,8.50
2023-01-15T06:25:37.552Z,8.79
2023-01-15T06:28:08.567Z,8.77
2023-01-15T06:30:39.274Z,9.38
2023-01-15T06:33:07.478Z,9.10
2023-01-15T06:35:34.092Z,8.98
2023-01-15T06:38:00.549Z,8.86
2023-01-15T06:40:28.822Z,7.85
2023-01-15T06:43:17.088Z,8.28
2023-01-15T06:46:02.562Z,8.34
2023-01-15T06:48:29.188Z,8.44
2023-01-15T06:50:55.724Z,9.22
2023-01-15T06:53:23.136Z,9.15
2023-01-15T06:55:49.602Z,8.75
2023-01-15T06:58:16.051Z,8.90
2023-01-15T07:00:44.481Z,8.88
2023-01-15T07:03:14.234Z,8.96
2023-01-15T07:05:41.375Z,8.81
2023-01-15T07:08:07.993Z,9.25
2023-01-15T07:10:35.631Z,9.21
2023-01-15T07:13:02.525Z,8.77
2023-01-15T07:15:29.065Z,8.27
2023-01-15T07:17:56.687Z,9.18
2023-01-15T07:20:23.642Z,9.43
2023-01-15T07:22:53.854Z,9.00
2023-01-15T07:25:20.398Z,9.26
2023-01-15T07:27:48.097Z,9.31
2023-01-15T07:30:15.380Z,9.09
2023-01-15T07:32:42.171Z,9.44
2023-01-15T07:35:10.139Z,8.98
2023-01-15T07:37:37.756Z,8.14
2023-01-15T07:40:04.926Z,8.72
2023-01-15T07:42:49.879Z,8.72
2023-01-15T07:45:34.847Z,8.07
2023-01-15T07:48:30.900Z,9.10
2023-01-15T07:50:57.396Z,9.25
2023-01-15T07:53:23.788Z,8.95
2023-01-15T07:55:50.253Z,8.77
2023-01-15T07:58:16.856Z,8.72
2023-01-15T08:00:43.369Z,8.91
2023-01-15T08:03:09.906Z,8.74
2023-01-15T08:05:36.346Z,8.65
2023-01-15T08:08:02.846Z,8.57
2023-01-15T08:10:29.366Z,9.21
2023-01-15T08:13:34.001Z,9.13
2023-01-15T08:16:00.508Z,9.50
2023-01-15T08:18:26.977Z,9.17
2023-01-15T08:20:53.403Z,9.21
2023-01-15T08:23:19.872Z,9.53
2023-01-15T08:25:46.305Z,9.40
2023-01-15T08:28:14.521Z,9.44
2023-01-15T08:30:40.998Z,9.25
2023-01-15T08:33:07.448Z,9.47
2023-01-15T08:35:34.477Z,8.98
2023-01-15T08:38:08.092Z,9.31
2023-01-15T08:40:36.378Z,9.15
2023-01-15T08:43:03.082Z,9.21
2023-01-15T08:45:29.484Z,9.16
2023-01-15T08:48:00.320Z,9.37
2023-01-15T08:50:26.750Z,9.04
2023-01-15T08:52:53.434Z,9.22
2023-01-15T08:55:20.010Z,9.46
2023-01-15T08:57:46.476Z,9.33
2023-01-15T09:00:13.483Z,9.66
2023-01-15T09:02:39.906Z,9.57
2023-01-15T09:05:06.654Z,9.47
2023-01-15T09:07:35.220Z,8.69
2023-01-15T09:10:01.777Z,9.25
2023-01-15T09:12:29.205Z,9.09
2023-01-15T09:15:02.120Z,8.75
2023-01-15T09:17:31.052Z,8.89
2023-01-15T09:19:57.513Z,9.33
2023-01-15T09:22:25.313Z,8.88
2023-01-15T09:24:51.734Z,9.41
2023-01-15T09:27:18.153Z,8.68
2023-01-15T09:29:44.581Z,9.38
2023-01-15T09:32:11.075Z,9.15
2023-01-15T09:34:37.557Z,8.43
2023-01-15T09:37:04.074Z,8.82
2023-01-15T09:39:30.571Z,8.12
2023-01-15T09:42:24.328Z,8.95
2023-01-15T09:44:53.747Z,8.01
2023-01-15T09:47:33.168Z,8.50
2023-01-15T09:50:30.731Z,8.22
2023-01-15T09:53:20.010Z,8.69
2023-01-15T09:55:49.267Z,8.61
2023-01-15T09:58:19.929Z,9.01
2023-01-15T10:00:49.214Z,9.29
2023-01-15T10:03:29.098Z,8.97
2023-01-15T10:06:02.578Z,9.03
2023-01-15T10:08:36.891Z,8.71
2023-01-15T10:11:05.893Z,9.01
2023-01-15T10:13:54.842Z,8.74
2023-01-15T10:16:33.747Z,8.68
2023-01-15T10:19:02.673Z,8.83
2023-01-15T10:21:40.974Z,8.50
2023-01-15T10:24:19.264Z,8.20
2023-01-15T10:26:56.063Z,8.54
2023-01-15T10:29:45.630Z,8.50
2023-01-15T10:33:07.609Z,8.72
2023-01-15T10:35:49.123Z,9.51
2023-01-15T10:38:38.030Z,8.68
2023-01-15T10:41:29.925Z,8.38
2023-01-15T10:44:19.233Z,9.49
2023-01-15T10:46:55.079Z,8.87
2023-01-15T10:49:22.423Z,8.23
2023-01-15T10:52:02.569Z,8.11
2023-01-15T10:54:45.385Z,8.28
2023-01-15T10:57:17.377Z,8.96
2023-01-15T10:59:54.957Z,8.15
2023-01-15T11:02:27.654Z,8.63
2023-01-15T11:04:54.381Z,8.75
2023-01-15T11:07:35.743Z,9.21
2023-01-15T11:10:06.442Z,9.04
2023-01-15T11:12:51.580Z,9.64
2023-01-15T11:15:42.841Z,8.86
2023-01-15T11:18:42.337Z,9.00
2023-01-15T11:21:15.354Z,8.83
2023-01-15T11:23:42.147Z,8.32
2023-01-15T11:26:10.182Z,8.09
2023-01-15T11:28:43.035Z,8.77
2023-01-15T11:31:11.558Z,8.95
2023-01-15T11:33:39.177Z,9.14
2023-01-15T11:36:08.147Z,8.61
2023-01-15T11:38:46.575Z,9.54
2023-01-15T11:41:20.294Z,8.94
2023-01-15T11:44:16.589Z,9.37
2023-01-15T11:47:04.951Z,8.81
2023-01-15T11:49:49.805Z,10.03
2023-01-15T11:52:20.355Z,9.88
2023-01-15T11:54:51.072Z,9.74
2023-01-15T11:57:30.178Z,9.70
2023-01-15T11:59:57.888Z,9.12
2023-01-15T12:02:41.163Z,9.51
2023-01-15T12:05:18.035Z,9.99
2023-01-15T12:07:45.422Z,9.70
2023-01-15T12:10:55.016Z,9.37
2023-01-15T12:13:54.854Z,9.62
2023-01-15T12:16:41.370Z,8.65
2023-01-15T12:19:35.322Z,9.91
2023-01-15T12:22:17.765Z,9.34
2023-01-15T12:24:47.173Z,8.75
2023-01-15T12:27:29.768Z,9.88
2023-01-15T12:30:17.675Z,9.37
2023-01-15T12:32:52.783Z,9.41
2023-01-15T12:35:25.743Z,9.25
2023-01-15T12:37:56.701Z,9.51
2023-01-15T12:40:23.191Z,9.33
2023-01-15T12:43:11.785Z,9.78
2023-01-15T12:45:48.131Z,9.84
2023-01-15T12:48:35.484Z,9.38
2023-01-15T12:51:05.286Z,10.20
2023-01-15T12:53:44.534Z,9.24
2023-01-15T12:56:21.961Z,9.63
2023-01-15T12:59:06.200Z,9.77
2023-01-15T13:01:51.133Z,9.93
2023-01-15T13:04:41.924Z,9.09
2023-01-15T13:07:37.325Z,9.43
2023-01-15T13:10:10.736Z,9.87
2023-01-15T13:12:37.136Z,10.51
2023-01-15T13:15:04.748Z,9.31
2023-01-15T13:17:51.453Z,9.27
2023-01-15T13:20:48.685Z,9.48
2023-01-15T13:23:20.819Z,9.50
2023-01-15T13:25:53.377Z,9.16
2023-01-15T13:28:22.786Z,9.61
2023-01-15T13:30:55.120Z,9.63
2023-01-15T13:33:28.016Z,9.25
2023-01-15T13:36:03.580Z,9.74
2023-01-15T13:38:32.985Z,8.97
2023-01-15T13:40:59.531Z,9.48
2023-01-15T13:43:34.814Z,9.87
2023-01-15T13:46:03.980Z,9.97
2023-01-15T13:48:44.548Z,10.16
2023-01-15T13:51:43.042Z,9.94
2023-01-15T13:54:16.738Z,9.86
2023-01-15T13:56:44.612Z,9.32
2023-01-15T13:59:45.229Z,9.00
2023-01-15T14:02:24.828Z,9.21
2023-01-15T14:04:52.042Z,9.14
2023-01-15T14:07:20.676Z,8.87
2023-01-15T14:09:47.111Z,9.40
2023-01-15T14:12:21.735Z,9.05
2023-01-15T14:15:19.003Z,9.49
2023-01-15T14:18:10.293Z,9.91
2023-01-15T14:20:57.329Z,9.64
2023-01-15T14:23:35.929Z,9.60
2023-01-15T14:26:26.354Z,9.96
2023-01-15T14:29:22.229Z,9.31
2023-01-15T14:32:09.692Z,9.45
2023-01-15T14:34:36.403Z,9.29
2023-01-15T14:37:41.243Z,8.75
2023-01-15T14:40:25.988Z,9.02
2023-01-15T14:43:02.671Z,9.49
2023-01-15T14:45:40.271Z,9.39
2023-01-15T14:48:17.718Z,9.08
2023-01-15T14:50:45.352Z,8.96
2023-01-15T14:53:11.728Z,9.20
2023-01-15T14:55:39.963Z,8.97
2023-01-15T14:58:16.299Z,9.90
2023-01-15T15:00:45.896Z,9.15
2023-01-15T15:03:22.812Z,9.36
2023-01-15T15:05:49.694Z,9.71
2023-01-15T15:08:19.455Z,9.28
2023-01-15T15:10:53.699Z,8.93
2023-01-15T15:13:28.808Z,9.67
2023-01-15T15:16:10.115Z,9.10
2023-01-15T15:18:44.029Z,9.95
2023-01-15T15:21:16.867Z,10.03
2023-01-15T15:24:09.489Z,10.24
2023-01-15T15:26:37.841Z,9.55
2023-01-15T15:29:12.392Z,9.34
2023-01-15T15:31:40.919Z,9.41
2023-01-15T15:34:15.938Z,9.97
2023-01-15T15:36:45.804Z,9.38
2023-01-15T15:39:47.412Z,9.31
2023-01-15T15:42:52.077Z,9.94
2023-01-15T15:45:38.571Z,8.91
2023-01-15T15:48:53.175Z,9.76
2023-01-15T15:51:42.510Z,9.26
2023-01-15T15:54:11.947Z,8.90
2023-01-15T15:56:44.151Z,9.97
2023-01-15T15:59:27.505Z,9.98
2023-01-15T16:01:55.550Z,9.12
2023-01-15T16:04:22.832Z,9.63
2023-01-15T16:06:49.436Z,9.98
2023-01-15T16:09:21.934Z,9.15
2023-01-15T16:11:50.695Z,9.63
2023-01-15T16:14:18.260Z,9.69
2023-01-15T16:16:48.027Z,9.59
2023-01-15T16:19:21.316Z,9.21
2023-01-15T16:21:49.376Z,9.44
2023-01-15T16:24:27.657Z,9.31
2023-01-15T16:27:00.568Z,8.99
2023-01-15T16:29:30.807Z,10.15
2023-01-15T16:31:59.711Z,9.22
2023-01-15T16:34:32.593Z,9.29
2023-01-15T16:37:26.560Z,9.36
2023-01-15T16:43:15.627Z,9.72
2023-01-15T16:45:57.354Z,9.20
2023-01-15T16:48:38.248Z,9.08
2023-01-15T16:51:34.601Z,9.25
2023-01-15T16:54:04.147Z,8.79
2023-01-15T16:56:39.719Z,9.79
2023-01-15T16:59:17.953Z,9.54
2023-01-15T17:02:17.715Z,9.24
2023-01-15T17:04:45.547Z,9.39
2023-01-15T17:07:37.080Z,9.64
2023-01-15T17:10:06.389Z,9.86
2023-01-15T17:12:42.282Z,9.27
2023-01-15T17:15:18.183Z,9.56
2023-01-15T17:17:48.767Z,9.62
2023-01-15T17:20:16.400Z,10.11
2023-01-15T17:22:47.499Z,9.92
2023-01-15T17:25:27.256Z,10.15
2023-01-15T17:27:59.468Z,10.45
2023-01-15T17:30:34.609Z,9.59
2023-01-15T17:33:02.758Z,9.14
2023-01-15T17:35:31.917Z,9.54
2023-01-15T17:37:58.739Z,10.12
2023-01-15T17:40:25.287Z,10.31
2023-01-15T17:42:51.806Z,9.56
2023-01-15T17:45:27.162Z,9.50
2023-01-15T17:47:53.753Z,9.41
2023-01-15T17:50:20.788Z,9.88
2023-01-15T17:52:47.723Z,8.94
2023-01-15T17:55:39.273Z,9.25
2023-01-15T17:58:24.029Z,9.62
2023-01-15T18:01:11.310Z,9.33
2023-01-15T18:04:01.627Z,9.62
2023-01-15T18:06:28.650Z,10.16
2023-01-15T18:08:58.873Z,9.16
2023-01-15T18:11:25.395Z,9.37
2023-01-15T18:13:52.429Z,9.37
2023-01-15T18:16:19.235Z,9.46
2023-01-15T18:18:45.693Z,9.74
2023-01-15T18:21:12.138Z,10.19
2023-01-15T18:23:39.594Z,9.05
2023-01-15T18:26:08.352Z,10.14
2023-01-15T18:28:36.461Z,9.21
2023-01-15T18:31:03.466Z,9.42
2023-01-15T18:33:29.983Z,9.95
2023-01-15T18:36:08.769Z,9.60
2023-01-15T18:38:36.876Z,8.98
2023-01-15T18:41:33.692Z,9.26
2023-01-15T18:44:19.642Z,9.64
2023-01-15T18:46:49.517Z,9.32
2023-01-15T18:49:16.561Z,9.59
2023-01-15T18:51:42.993Z,10.42
2023-01-15T18:54:10.222Z,8.93
2023-01-15T18:56:40.049Z,9.52
2023-01-15T18:59:08.447Z,9.92
2023-01-15T19:01:35.196Z,9.18
2023-01-15T19:04:02.344Z,10.02
2023-01-15T19:06:28.846Z,9.55
2023-01-15T19:08:55.327Z,9.66
2023-01-15T19:11:21.803Z,10.00
2023-01-15T19:14:08.167Z,9.22
2023-01-15T19:16:53.223Z,10.07
2023-01-15T19:19:19.712Z,9.42
2023-01-15T19:21:46.981Z,9.67
2023-01-15T19:24:13.742Z,8.67
2023-01-15T19:26:40.311Z,9.67
2023-01-15T19:29:06.977Z,9.32
2023-01-15T19:31:37.009Z,9.55
2023-01-15T19:34:32.093Z,9.74
2023-01-15T19:36:54.592Z,9.09
2023-01-15T19:39:21.433Z,9.22
2023-01-15T19:42:06.387Z,9.74
2023-01-15T19:44:51.144Z,9.41
2023-01-15T19:47:43.432Z,9.31
2023-01-15T19:50:19.063Z,9.98
2023-01-15T19:52:47.285Z,9.29
2023-01-15T19:55:15.170Z,9.16
2023-01-15T19:57:43.708Z,8.79
2023-01-15T20:00:12.899Z,9.39
2023-01-15T20:02:39.678Z,9.06
2023-01-15T20:05:07.193Z,8.85
2023-01-15T20:07:33.626Z,8.89
2023-01-15T20:10:00.153Z,9.13
2023-01-15T20:12:44.892Z,9.71
2023-01-15T20:15:11.406Z,9.43
2023-01-15T20:17:37.839Z,9.02
2023-01-15T20:20:04.773Z,9.07
2023-01-15T20:22:32.109Z,9.02
2023-01-15T20:24:58.530Z,8.38
2023-01-15T20:27:25.038Z,8.73
2023-01-15T20:30:04.041Z,8.55
2023-01-15T20:32:30.506Z,9.15
2023-01-15T20:34:57.247Z,8.87
2023-01-15T20:37:23.920Z,8.63
2023-01-15T20:39:52.297Z,9.82
2023-01-15T20:42:37.183Z,8.92
2023-01-15T20:45:10.718Z,8.88
2023-01-15T20:47:58.091Z,9.15
2023-01-15T20:50:27.976Z,8.78
2023-01-15T20:52:58.582Z,8.98
2023-01-15T20:55:49.644Z,9.61
2023-01-15T20:58:22.690Z,8.81
2023-01-15T21:00:49.237Z,9.87
2023-01-15T21:03:15.677Z,9.31
2023-01-15T21:05:42.069Z,9.45
2023-01-15T21:08:08.486Z,10.21
2023-01-15T21:10:34.967Z,9.95
2023-01-15T21:13:01.373Z,10.02
2023-01-15T21:15:27.867Z,8.26
2023-01-15T21:17:54.268Z,9.34
2023-01-15T21:20:20.684Z,8.44
2023-01-15T21:22:47.470Z,8.66
2023-01-15T21:25:13.956Z,8.86
2023-01-15T21:27:40.758Z,9.22
2023-01-15T21:30:08.696Z,9.05
2023-01-15T21:32:35.164Z,9.10
2023-01-15T21:35:01.772Z,9.07
2023-01-15T21:37:28.302Z,9.04
2023-01-15T21:39:54.696Z,8.98
2023-01-15T21:42:53.997Z,8.90
2023-01-15T21:45:20.483Z,8.52
2023-01-15T21:47:46.883Z,8.88
2023-01-15T21:50:13.324Z,8.71
2023-01-15T21:52:39.748Z,8.12
2023-01-15T21:55:07.393Z,9.31
2023-01-15T21:57:33.934Z,8.88
2023-01-15T22:00:00.375Z,8.00
2023-01-15T22:02:29.674Z,8.54
2023-01-15T22:04:56.117Z,8.43
2023-01-15T22:07:22.548Z,8.26
2023-01-15T22:09:48.971Z,8.62
2023-01-15T22:12:15.430Z,8.34
2023-01-15T22:14:44.509Z,8.40
2023-01-15T22:17:11.093Z,8.20
2023-01-15T22:19:37.634Z,8.16
2023-01-15T22:22:08.480Z,8.13
2023-01-15T22:24:36.560Z,8.35
2023-01-15T22:27:06.244Z,8.20
2023-01-15T22:29:38.258Z,8.81
2023-01-15T22:32:06.052Z,8.75
2023-01-15T22:34:32.833Z,8.13
2023-01-15T22:36:59.302Z,8.22
2023-01-15T22:39:26.558Z,7.72
2023-01-15T22:42:12.269Z,8.93
2023-01-15T22:44:38.931Z,8.51
2023-01-15T22:47:06.481Z,8.73
2023-01-15T22:49:33.035Z,7.81
2023-01-15T22:51:59.603Z,8.28
2023-01-15T22:54:26.070Z,7.93
2023-01-15T22:56:52.535Z,8.23
2023-01-15T22:59:19.412Z,8.44
2023-01-15T23:01:46.043Z,8.07
2023-01-15T23:04:20.694Z,8.05
2023-01-15T23:06:48.845Z,8.56
2023-01-15T23:09:15.341Z,8.64
2023-01-15T23:11:41.764Z,7.87
2023-01-15T23:14:11.086Z,9.20
2023-01-15T23:16:37.611Z,8.07
2023-01-15T23:19:05.682Z,8.24
2023-01-15T23:21:32.936Z,8.79
2023-01-15T23:24:00.897Z,8.91
2023-01-15T23:26:30.504Z,8.73
2023-01-15T23:28:56.961Z,8.77
2023-01-15T23:31:24.019Z,9.16
2023-01-15T23:33:50.696Z,9.26
2023-01-15T23:36:17.321Z,9.01
2023-01-15T23:38:46.488Z,9.36
2023-01-15T23:41:15.689Z,9.03
2023-01-15T23:44:02.062Z,8.98
2023-01-15T23:46:32.632Z,9.11
2023-01-15T23:49:10.312Z,9.11
2023-01-15T23:51:37.574Z,8.50
2023-01-15T23:54:05.563Z,9.03
2023-01-15T23:56:33.136Z,9.10
2023-01-15T23:59:00.262Z,9.13
